Time;durP1;ratioP1;P1;durP2;ratioP2;P2;SDS_P1;SDS_P2;PMS_P1;PMS_P2;Temp;Humidity;BMP_temperature;BMP_pressure;BME280_temperature;BME280_humidity;BME280_pressure;Samples;Min_cycle;Max_cycle;Signal;HPM_P1;HPM_P2
2021/05/24 00:01:47;;;;;;;6.37;3.57;;;9.50;99.90;;;;;;4888144;29;20319;-66
2021/05/24 00:04:13;;;;;;;4.00;3.37;;;9.50;99.90;;;;;;4882806;29;20190;-66
2021/05/24 00:06:38;;;;;;;4.30;3.90;;;9.50;99.90;;;;;;4879626;29;20215;-66
2021/05/24 00:09:04;;;;;;;4.87;3.70;;;9.50;99.90;;;;;;4888160;29;20682;-67
2021/05/24 00:11:31;;;;;;;4.77;3.30;;;9.50;99.90;;;;;;4895699;29;20175;-66
2021/05/24 00:13:56;;;;;;;3.47;2.97;;;9.40;99.90;;;;;;4890746;29;20183;-66
2021/05/24 00:16:23;;;;;;;4.50;3.80;;;9.30;99.90;;;;;;4880407;29;20938;-66
2021/05/24 00:18:51;;;;;;;5.07;3.53;;;9.30;99.90;;;;;;4877176;29;20195;-66
2021/05/24 00:21:18;;;;;;;6.57;4.10;;;9.20;99.90;;;;;;4887918;29;20444;-66
2021/05/24 00:23:44;;;;;;;5.37;4.57;;;9.20;99.90;;;;;;4891304;29;20495;-67
2021/05/24 00:26:11;;;;;;;4.20;3.80;;;9.20;99.90;;;;;;4894030;29;20458;-66
2021/05/24 00:28:36;;;;;;;4.53;3.43;;;9.20;99.90;;;;;;4893174;29;20627;-67
2021/05/24 00:31:02;;;;;;;3.97;3.50;;;9.10;99.90;;;;;;4886735;29;20438;-65
2021/05/24 00:33:27;;;;;;;4.40;4.03;;;9.10;99.90;;;;;;4887512;29;20189;-66
2021/05/24 00:35:53;;;;;;;4.30;3.20;;;9.10;99.90;;;;;;4893747;29;20214;-66
2021/05/24 00:38:18;;;;;;;4.50;3.63;;;9.20;99.90;;;;;;4881357;29;20225;-67
2021/05/24 00:40:44;;;;;;;6.63;3.93;;;9.20;99.90;;;;;;4879136;29;20421;-66
2021/05/24 00:43:10;;;;;;;4.47;4.03;;;9.20;99.90;;;;;;4893195;29;20688;-66
2021/05/24 00:45:36;;;;;;;6.33;3.80;;;9.20;99.90;;;;;;4886497;29;20274;-66
2021/05/24 00:48:03;;;;;;;5.20;4.20;;;9.20;99.90;;;;;;4890779;29;20267;-66
2021/05/24 00:50:28;;;;;;;4.40;4.07;;;9.20;99.90;;;;;;4891905;29;20589;-67
2021/05/24 00:52:54;;;;;;;4.37;3.97;;;9.20;99.90;;;;;;4885911;29;20442;-66
2021/05/24 00:55:19;;;;;;;3.87;3.57;;;9.20;99.90;;;;;;4888829;29;20266;-66
2021/05/24 00:57:45;;;;;;;5.63;3.97;;;9.10;99.90;;;;;;4877981;29;20179;-66
2021/05/24 01:00:21;;;;;;;4.07;3.47;;;9.10;99.90;;;;;;4881634;29;20179;-67
2021/05/24 01:02:48;;;;;;;4.80;4.40;;;9.00;99.90;;;;;;4891252;29;20263;-67
2021/05/24 01:05:15;;;;;;;4.10;3.80;;;9.00;99.90;;;;;;4884245;29;20444;-66
2021/05/24 01:07:41;;;;;;;5.13;3.77;;;8.90;99.90;;;;;;4881772;29;20444;-66
2021/05/24 01:10:07;;;;;;;4.60;4.20;;;8.90;99.90;;;;;;4886951;29;20474;-66
2021/05/24 01:12:32;;;;;;;9.83;3.80;;;8.90;99.90;;;;;;4889949;29;20187;-67
2021/05/24 01:14:58;;;;;;;5.40;4.50;;;8.90;99.90;;;;;;4893892;29;20439;-66
2021/05/24 01:17:23;;;;;;;4.77;4.30;;;8.90;99.90;;;;;;4884720;29;20175;-65
2021/05/24 01:19:49;;;;;;;4.57;4.20;;;8.90;99.90;;;;;;4881173;29;20214;-66
2021/05/24 01:22:19;;;;;;;3.90;3.60;;;9.00;99.90;;;;;;4884328;29;20243;-66
2021/05/24 01:24:46;;;;;;;8.60;3.53;;;8.90;99.90;;;;;;4886107;29;20189;-66
2021/05/24 01:27:12;;;;;;;5.67;4.10;;;9.00;99.90;;;;;;4898473;29;20451;-66
2021/05/24 01:29:38;;;;;;;5.37;4.17;;;9.00;99.90;;;;;;4893101;29;21003;-66
2021/05/24 01:32:04;;;;;;;7.93;4.20;;;8.90;99.90;;;;;;4889500;29;20505;-66
2021/05/24 01:34:32;;;;;;;4.80;3.60;;;8.90;99.90;;;;;;4880140;29;20278;-66
2021/05/24 01:36:58;;;;;;;3.90;3.50;;;8.90;99.90;;;;;;4879876;29;20436;-66
2021/05/24 01:39:24;;;;;;;6.93;4.00;;;8.90;99.90;;;;;;4882243;29;20474;-66
2021/05/24 01:41:49;;;;;;;4.70;4.07;;;8.80;99.90;;;;;;4898038;29;20534;-66
2021/05/24 01:44:36;;;;;;;4.80;3.90;;;8.70;99.90;;;;;;4891342;29;20266;-66
2021/05/24 01:47:02;;;;;;;4.17;3.80;;;8.60;99.90;;;;;;4895250;29;20197;-67
2021/05/24 01:49:30;;;;;;;5.33;4.40;;;8.60;99.90;;;;;;4887834;29;20883;-66
2021/05/24 01:51:55;;;;;;;5.97;5.20;;;8.60;99.90;;;;;;4880101;29;20188;-66
2021/05/24 01:54:21;;;;;;;9.07;5.23;;;8.60;99.90;;;;;;4896943;29;20526;-65
2021/05/24 01:56:47;;;;;;;7.07;4.87;;;8.50;99.90;;;;;;4894949;29;20176;-66
2021/05/24 01:59:12;;;;;;;6.03;5.40;;;8.60;99.90;;;;;;4879435;29;20247;-66
2021/05/24 02:01:38;;;;;;;5.13;4.63;;;8.50;99.90;;;;;;4886589;29;20231;-66
2021/05/24 02:04:04;;;;;;;5.17;4.60;;;8.50;99.90;;;;;;4890006;29;20179;-66
2021/05/24 02:06:30;;;;;;;4.83;4.37;;;8.50;99.90;;;;;;4894819;29;20730;-66
2021/05/24 02:08:56;;;;;;;5.23;4.63;;;8.50;99.90;;;;;;4883561;29;20997;-66
2021/05/24 02:11:22;;;;;;;5.53;4.80;;;8.60;99.90;;;;;;4879487;29;20491;-67
2021/05/24 02:13:48;;;;;;;6.33;4.50;;;8.50;99.90;;;;;;4894218;29;20509;-66
2021/05/24 02:16:14;;;;;;;5.87;4.87;;;8.50;99.90;;;;;;4894885;29;20179;-66
2021/05/24 02:18:39;;;;;;;5.20;3.90;;;8.50;99.90;;;;;;4896036;29;20466;-65
2021/05/24 02:21:06;;;;;;;4.37;4.00;;;8.50;99.90;;;;;;4888136;29;20436;-66
2021/05/24 02:23:33;;;;;;;4.83;4.33;;;8.50;99.90;;;;;;4888132;29;20722;-65
2021/05/24 02:25:59;;;;;;;8.77;4.33;;;8.40;99.90;;;;;;4896229;29;20840;-65
2021/05/24 02:28:24;;;;;;;4.30;3.90;;;8.40;99.90;;;;;;4891876;29;20459;-66
2021/05/24 02:30:50;;;;;;;4.53;4.13;;;8.40;99.90;;;;;;4895953;29;20443;-66
2021/05/24 02:33:16;;;;;;;4.37;3.97;;;8.50;99.90;;;;;;4883448;29;20658;-65
2021/05/24 02:35:41;;;;;;;4.20;3.70;;;8.50;99.90;;;;;;4887790;29;20247;-66
2021/05/24 02:38:07;;;;;;;4.70;4.30;;;8.50;99.90;;;;;;4897133;29;20755;-66
2021/05/24 02:40:33;;;;;;;5.10;4.60;;;8.40;99.90;;;;;;4882631;29;20255;-65
2021/05/24 02:42:59;;;;;;;6.30;3.80;;;8.40;99.90;;;;;;4889873;29;20189;-65
2021/05/24 02:45:25;;;;;;;5.87;3.50;;;8.40;99.90;;;;;;4897200;29;20824;-65
2021/05/24 02:47:51;;;;;;;5.40;3.00;;;8.40;99.90;;;;;;4897210;29;20451;-66
2021/05/24 02:50:22;;;;;;;3.00;2.73;;;8.40;99.90;;;;;;4896916;29;20830;-65
2021/05/24 02:52:48;;;;;;;3.63;2.57;;;8.40;99.90;;;;;;4896924;29;20431;-65
2021/05/24 02:55:15;;;;;;;2.60;2.40;;;8.40;99.90;;;;;;4897354;29;20795;-66
2021/05/24 02:57:41;;;;;;;3.67;2.67;;;8.50;99.90;;;;;;4896847;29;20274;-66
2021/05/24 03:00:07;;;;;;;3.70;2.93;;;8.60;99.90;;;;;;4896514;29;20527;-65
2021/05/24 03:02:34;;;;;;;3.53;2.90;;;8.60;99.90;;;;;;4897186;29;20450;-66
2021/05/24 03:05:00;;;;;;;3.53;2.60;;;8.60;99.90;;;;;;4896598;29;20457;-66
2021/05/24 03:07:25;;;;;;;5.70;3.47;;;8.50;99.90;;;;;;4896649;29;20542;-65
2021/05/24 03:09:51;;;;;;;2.60;2.33;;;8.50;99.90;;;;;;4896210;29;20207;-66
2021/05/24 03:12:17;;;;;;;4.50;2.63;;;8.50;99.90;;;;;;4896681;29;20273;-66
2021/05/24 03:14:42;;;;;;;2.60;2.40;;;8.50;99.90;;;;;;4895846;29;20206;-66
2021/05/24 03:17:08;;;;;;;2.97;2.67;;;8.50;99.90;;;;;;4896445;29;20182;-66
2021/05/24 03:19:34;;;;;;;2.57;2.30;;;8.50;99.90;;;;;;4896087;29;20207;-66
2021/05/24 03:21:59;;;;;;;2.23;2.00;;;8.50;99.90;;;;;;4896225;29;20186;-66
2021/05/24 03:24:25;;;;;;;2.70;2.00;;;8.50;99.90;;;;;;4896226;29;20190;-66
2021/05/24 03:26:51;;;;;;;7.27;2.43;;;8.50;99.90;;;;;;4896257;29;20365;-66
2021/05/24 03:29:16;;;;;;;3.43;2.23;;;8.50;99.90;;;;;;4895204;29;20203;-66
2021/05/24 03:31:42;;;;;;;2.97;2.67;;;8.50;99.90;;;;;;4895634;29;20650;-66
2021/05/24 03:34:07;;;;;;;2.70;2.00;;;8.50;99.90;;;;;;4896234;29;20181;-66
2021/05/24 03:36:33;;;;;;;2.23;1.97;;;8.50;99.90;;;;;;4896343;29;20194;-66
2021/05/24 03:38:59;;;;;;;3.43;2.83;;;8.50;99.90;;;;;;4896129;29;20211;-65
2021/05/24 03:41:24;;;;;;;2.37;2.10;;;8.40;99.90;;;;;;4896524;29;20186;-66
2021/05/24 03:43:50;;;;;;;2.20;2.10;;;8.50;99.90;;;;;;4896072;29;20669;-66
2021/05/24 03:46:15;;;;;;;2.57;2.00;;;8.50;99.90;;;;;;4895871;29;20448;-65
2021/05/24 03:48:41;;;;;;;3.40;2.27;;;8.60;99.90;;;;;;4895382;29;20202;-66
2021/05/24 03:51:08;;;;;;;2.23;2.03;;;8.60;99.90;;;;;;4895939;29;20186;-66
2021/05/24 03:53:34;;;;;;;2.00;1.83;;;8.50;99.90;;;;;;4896112;29;20203;-66
2021/05/24 03:56:00;;;;;;;3.83;2.23;;;8.40;99.90;;;;;;4896009;29;20470;-66
2021/05/24 03:58:26;;;;;;;2.33;1.70;;;8.40;99.90;;;;;;4895626;29;20495;-66
2021/05/24 04:00:51;;;;;;;2.27;2.10;;;8.40;99.90;;;;;;4895335;29;20435;-66
2021/05/24 04:03:17;;;;;;;2.87;2.00;;;8.40;99.90;;;;;;4895520;29;20665;-66
2021/05/24 04:05:45;;;;;;;8.67;2.57;;;8.40;99.90;;;;;;4895706;29;20187;-66
2021/05/24 04:08:11;;;;;;;2.43;2.23;;;8.40;99.90;;;;;;4895780;29;20194;-66
2021/05/24 04:10:48;;;;;;;3.80;2.03;;;8.50;99.90;;;;;;4895408;29;20522;-66
2021/05/24 04:13:14;;;;;;;2.43;2.10;;;8.50;99.90;;;;;;4888387;29;20210;-66
2021/05/24 04:15:40;;;;;;;2.20;1.70;;;8.60;99.90;;;;;;4888777;29;20479;-66
2021/05/24 04:18:12;;;;;;;2.07;1.80;;;8.60;99.90;;;;;;4878291;29;20248;-66
2021/05/24 04:20:38;;;;;;;2.00;1.90;;;8.70;99.90;;;;;;4877368;29;20448;-66
2021/05/24 04:23:03;;;;;;;1.83;1.70;;;8.70;99.90;;;;;;4882885;29;20929;-66
2021/05/24 04:25:29;;;;;;;2.50;1.50;;;8.70;99.90;;;;;;4895606;29;20606;-66
2021/05/24 04:27:54;;;;;;;2.10;1.77;;;8.80;99.90;;;;;;4887719;29;20257;-66
2021/05/24 04:30:20;;;;;;;1.80;1.70;;;8.90;99.90;;;;;;4879655;29;20564;-66
2021/05/24 04:32:46;;;;;;;5.67;4.20;;;9.00;99.90;;;;;;4895249;29;20205;-66
2021/05/24 04:35:12;;;;;;;3.50;2.27;;;9.10;99.90;;;;;;4879293;29;20191;-66
2021/05/24 04:37:37;;;;;;;2.03;1.83;;;9.10;99.90;;;;;;4890130;29;20672;-66
2021/05/24 04:40:04;;;;;;;2.03;1.90;;;9.20;99.90;;;;;;4884455;29;20630;-66
2021/05/24 04:42:29;;;;;;;3.37;2.27;;;9.20;99.90;;;;;;4890908;29;20187;-66
2021/05/24 04:44:55;;;;;;;2.90;2.30;;;9.10;99.90;;;;;;4890882;29;20509;-66
2021/05/24 04:47:20;;;;;;;3.77;2.90;;;9.10;99.90;;;;;;4877037;29;20184;-65
2021/05/24 04:49:49;;;;;;;2.33;2.13;;;9.10;99.90;;;;;;4882495;29;20219;-66
2021/05/24 04:52:18;;;;;;;3.90;2.60;;;9.10;99.90;;;;;;4877082;29;20179;-65
2021/05/24 04:54:45;;;;;;;2.30;2.10;;;9.20;99.90;;;;;;4886045;29;20438;-65
2021/05/24 04:57:11;;;;;;;2.53;2.13;;;9.20;99.90;;;;;;4892371;29;20515;-66
2021/05/24 04:59:38;;;;;;;2.20;1.83;;;9.30;99.90;;;;;;4881990;29;20904;-66
2021/05/24 05:02:03;;;;;;;2.30;1.83;;;9.40;99.90;;;;;;4888877;29;20814;-66
2021/05/24 05:04:29;;;;;;;3.33;2.33;;;9.50;99.90;;;;;;4878026;29;20447;-66
2021/05/24 05:06:56;;;;;;;2.70;1.83;;;9.60;99.90;;;;;;4877657;29;20239;-66
2021/05/24 05:09:22;;;;;;;5.13;2.67;;;9.70;99.90;;;;;;4887650;29;20298;-66
2021/05/24 05:11:47;;;;;;;3.07;2.37;;;9.80;99.90;;;;;;4895282;29;20518;-66
2021/05/24 05:14:13;;;;;;;3.20;2.90;;;9.80;99.90;;;;;;4893505;29;20217;-66
2021/05/24 05:16:38;;;;;;;2.50;2.30;;;10.00;99.90;;;;;;4888904;29;20725;-66
2021/05/24 05:19:04;;;;;;;4.77;1.77;;;10.00;99.90;;;;;;4880807;29;20270;-66
2021/05/24 05:21:30;;;;;;;3.13;2.20;;;10.00;99.90;;;;;;4884431;29;20188;-66
2021/05/24 05:23:56;;;;;;;4.40;2.10;;;10.10;99.90;;;;;;4888116;29;20247;-65
2021/05/24 05:26:21;;;;;;;3.60;2.60;;;10.30;99.90;;;;;;4892132;29;20603;-65
2021/05/24 05:28:47;;;;;;;2.67;2.43;;;10.50;99.90;;;;;;4893268;29;20246;-66
2021/05/24 05:31:12;;;;;;;2.50;2.30;;;10.50;99.90;;;;;;4895177;29;20266;-66
2021/05/24 05:33:38;;;;;;;3.87;2.27;;;10.50;99.90;;;;;;4894961;29;20183;-66
2021/05/24 05:36:04;;;;;;;1.90;1.80;;;10.50;99.90;;;;;;4893514;29;20207;-66
2021/05/24 05:38:30;;;;;;;2.10;2.00;;;10.60;99.90;;;;;;4889555;29;20676;-66
2021/05/24 05:40:56;;;;;;;2.30;2.10;;;10.60;99.90;;;;;;4885947;29;20235;-66
2021/05/24 05:43:22;;;;;;;2.80;2.60;;;10.80;99.90;;;;;;4894685;29;20435;-66
2021/05/24 05:45:48;;;;;;;3.03;2.73;;;10.90;99.90;;;;;;4890695;29;20443;-66
2021/05/24 05:48:13;;;;;;;5.00;2.90;;;11.00;99.90;;;;;;4876709;29;20200;-66
2021/05/24 05:50:39;;;;;;;3.40;2.30;;;11.00;99.90;;;;;;4880268;29;20222;-66
2021/05/24 05:53:05;;;;;;;3.23;2.93;;;11.10;99.90;;;;;;4884231;29;20439;-66
2021/05/24 05:55:31;;;;;;;3.00;2.80;;;11.10;99.90;;;;;;4895765;29;20230;-65
2021/05/24 05:57:57;;;;;;;3.47;2.90;;;11.20;99.90;;;;;;4897521;29;20464;-65
2021/05/24 06:00:23;;;;;;;3.00;2.80;;;11.30;99.90;;;;;;4894332;29;20598;-66
2021/05/24 06:02:49;;;;;;;3.27;3.07;;;11.50;99.90;;;;;;4884081;29;20186;-67
2021/05/24 06:05:15;;;;;;;2.90;2.70;;;11.60;99.90;;;;;;4895412;29;20470;-66
2021/05/24 06:07:42;;;;;;;4.10;3.23;;;11.50;99.90;;;;;;4896938;29;20210;-66
2021/05/24 06:10:13;;;;;;;3.37;3.10;;;11.60;99.90;;;;;;4884949;29;20456;-66
2021/05/24 06:12:38;;;;;;;4.47;4.17;;;11.60;99.90;;;;;;4893869;29;20522;-66
2021/05/24 06:15:06;;;;;;;3.73;3.43;;;11.60;99.90;;;;;;4896863;29;20472;-66
2021/05/24 06:17:32;;;;;;;3.60;3.30;;;11.80;99.90;;;;;;4896933;29;20187;-66
2021/05/24 06:19:58;;;;;;;3.97;3.60;;;12.00;99.90;;;;;;4880225;29;21112;-65
2021/05/24 06:22:23;;;;;;;3.87;3.57;;;12.20;99.90;;;;;;4887580;29;20638;-67
2021/05/24 06:24:49;;;;;;;3.33;3.03;;;12.20;99.90;;;;;;4887596;29;20187;-65
2021/05/24 06:27:15;;;;;;;3.83;3.47;;;12.40;99.90;;;;;;4889423;29;20210;-66
2021/05/24 06:29:40;;;;;;;3.13;2.83;;;12.60;99.90;;;;;;4896725;29;20214;-65
2021/05/24 06:32:06;;;;;;;2.73;2.53;;;12.60;99.90;;;;;;4882712;29;20656;-66
2021/05/24 06:34:31;;;;;;;3.40;3.10;;;12.60;99.90;;;;;;4889290;29;20236;-66
2021/05/24 06:36:57;;;;;;;5.47;2.50;;;12.80;99.90;;;;;;4893257;29;20658;-66
2021/05/24 06:39:23;;;;;;;2.60;2.40;;;12.90;99.90;;;;;;4879278;29;20658;-66
2021/05/24 06:41:49;;;;;;;2.57;2.37;;;13.10;99.90;;;;;;4891069;29;20183;-66
2021/05/24 06:44:15;;;;;;;2.33;2.13;;;13.00;99.90;;;;;;4896224;29;20238;-65
2021/05/24 06:46:41;;;;;;;3.60;2.50;;;13.00;99.90;;;;;;4882759;29;20443;-66
2021/05/24 06:49:07;;;;;;;2.87;2.40;;;13.30;99.90;;;;;;4896054;29;20749;-66
2021/05/24 06:51:33;;;;;;;2.60;2.30;;;13.40;99.90;;;;;;4897170;29;20303;-66
2021/05/24 06:53:59;;;;;;;3.40;2.80;;;13.60;99.90;;;;;;4897068;29;20553;-67
2021/05/24 06:56:24;;;;;;;2.40;2.20;;;13.70;99.90;;;;;;4897253;29;20431;-66
2021/05/24 06:58:50;;;;;;;4.67;2.80;;;14.00;99.90;;;;;;4896114;29;20450;-65
2021/05/24 07:01:15;;;;;;;2.80;2.13;;;13.90;99.90;;;;;;4896741;29;20179;-65
2021/05/24 07:03:41;;;;;;;3.23;2.47;;;13.90;99.90;;;;;;4895924;29;20653;-66
2021/05/24 07:06:07;;;;;;;2.33;2.13;;;14.10;99.90;;;;;;4897007;29;20183;-65
2021/05/24 07:08:32;;;;;;;2.93;2.40;;;14.20;99.90;;;;;;4896357;29;20293;-66
2021/05/24 07:10:58;;;;;;;8.17;5.53;;;14.40;99.90;;;;;;4896382;29;20305;-66
2021/05/24 07:13:24;;;;;;;2.43;2.23;;;14.60;99.90;;;;;;4897059;29;20183;-66
2021/05/24 07:15:50;;;;;;;4.00;2.80;;;14.90;99.90;;;;;;4896427;29;20521;-66
2021/05/24 07:18:15;;;;;;;3.60;2.60;;;15.20;99.90;;;;;;4896811;29;20199;-66
2021/05/24 07:20:41;;;;;;;3.67;2.70;;;15.10;99.90;;;;;;4896221;29;20266;-65
2021/05/24 07:23:06;;;;;;;4.80;4.30;;;15.30;99.90;;;;;;4896509;29;20202;-66
2021/05/24 07:25:32;;;;;;;8.20;3.77;;;15.30;99.90;;;;;;4896500;29;20195;-66
2021/05/24 07:27:58;;;;;;;3.10;2.90;;;15.40;99.90;;;;;;4896261;29;20270;-65
2021/05/24 07:30:23;;;;;;;3.00;2.80;;;15.40;99.90;;;;;;4896383;29;20266;-66
2021/05/24 07:32:49;;;;;;;6.03;4.33;;;15.60;99.90;;;;;;4896433;29;20183;-66
2021/05/24 07:35:15;;;;;;;4.40;2.77;;;15.80;99.90;;;;;;4896365;29;20171;-65
2021/05/24 07:37:41;;;;;;;2.50;2.30;;;15.70;99.90;;;;;;4896051;29;20187;-66
2021/05/24 07:40:08;;;;;;;2.50;2.30;;;15.70;99.90;;;;;;4895744;29;20578;-66
2021/05/24 07:42:34;;;;;;;2.67;2.03;;;15.70;99.90;;;;;;4895937;29;20419;-66
2021/05/24 07:45:00;;;;;;;5.00;2.50;;;15.50;99.90;;;;;;4895588;29;20489;-66
2021/05/24 07:47:25;;;;;;;2.93;1.97;;;15.40;99.90;;;;;;4896088;29;20447;-66
2021/05/24 07:49:51;;;;;;;4.27;2.00;;;15.40;99.90;;;;;;4895542;29;20254;-65
2021/05/24 07:52:16;;;;;;;2.47;2.30;;;15.30;99.90;;;;;;4895747;29;20182;-65
2021/05/24 07:54:42;;;;;;;2.73;2.00;;;15.50;99.90;;;;;;4895779;29;20176;-66
2021/05/24 07:57:08;;;;;;;1.80;1.70;;;15.50;99.90;;;;;;4891293;29;20668;-65
2021/05/24 07:59:34;;;;;;;2.10;2.00;;;15.50;99.90;;;;;;4895490;29;20229;-66
2021/05/24 08:02:01;;;;;;;2.53;2.00;;;15.40;99.90;;;;;;4895963;29;20929;-66
2021/05/24 08:04:27;;;;;;;2.10;1.90;;;15.40;99.90;;;;;;4896143;29;20525;-66
2021/05/24 08:06:52;;;;;;;2.73;2.53;;;15.70;99.90;;;;;;4895552;29;20526;-66
2021/05/24 08:09:18;;;;;;;2.33;2.13;;;16.00;99.90;;;;;;4895207;29;20213;-66
2021/05/24 08:11:44;;;;;;;1.80;1.70;;;16.10;99.90;;;;;;4895544;29;20645;-65
2021/05/24 08:14:14;;;;;;;1.77;1.67;;;16.10;99.90;;;;;;4895199;29;20187;-66
2021/05/24 08:16:49;;;;;;;2.20;2.00;;;16.10;99.90;;;;;;4895589;29;20559;-66
2021/05/24 08:19:16;;;;;;;2.10;2.00;;;16.20;99.90;;;;;;4882218;29;20823;-67
2021/05/24 08:21:46;;;;;;;2.93;2.00;;;16.50;99.90;;;;;;4895157;29;20438;-66
2021/05/24 08:24:12;;;;;;;2.27;1.90;;;16.80;99.90;;;;;;4895637;29;20442;-66
2021/05/24 08:26:38;;;;;;;3.93;3.20;;;16.80;99.90;;;;;;4895498;29;20458;-67
2021/05/24 08:29:04;;;;;;;2.43;2.23;;;16.70;99.90;;;;;;4895059;29;20467;-67
2021/05/24 08:31:31;;;;;;;1.67;1.53;;;16.30;99.90;;;;;;4895737;29;20478;-65
2021/05/24 08:33:57;;;;;;;2.07;1.87;;;16.40;99.90;;;;;;4895433;29;20788;-66
2021/05/24 08:36:23;;;;;;;1.97;1.87;;;16.70;99.90;;;;;;4895014;29;20439;-67
2021/05/24 08:38:49;;;;;;;1.60;1.50;;;16.80;99.90;;;;;;4893754;29;20475;-66
2021/05/24 08:41:16;;;;;;;2.33;1.60;;;16.90;99.90;;;;;;4894930;29;20179;-65
2021/05/24 08:43:41;;;;;;;1.90;1.30;;;16.70;99.90;;;;;;4895108;29;20440;-67
2021/05/24 08:46:07;;;;;;;1.63;1.50;;;16.70;99.90;;;;;;4895339;29;20450;-67
2021/05/24 08:48:34;;;;;;;1.57;1.47;;;16.80;99.90;;;;;;4888101;29;20343;-67
2021/05/24 08:51:00;;;;;;;1.73;1.63;;;17.00;99.90;;;;;;4891257;29;20760;-67
2021/05/24 08:53:27;;;;;;;2.40;1.90;;;17.00;99.90;;;;;;4890953;29;20443;-67
2021/05/24 08:55:54;;;;;;;1.37;1.27;;;17.40;99.90;;;;;;4887225;29;20334;-67
2021/05/24 08:58:20;;;;;;;3.03;1.73;;;17.90;99.90;;;;;;4891559;29;21040;-67
2021/05/24 09:00:46;;;;;;;6.63;1.60;;;18.00;99.90;;;;;;4890453;29;20443;-67
2021/05/24 09:03:24;;;;;;;1.67;1.57;;;18.20;99.40;;;;;;4890399;29;20459;-67
2021/05/24 09:05:52;;;;;;;2.20;1.53;;;18.10;98.90;;;;;;4892040;29;20704;-67
2021/05/24 09:08:18;;;;;;;1.70;1.60;;;18.40;99.20;;;;;;4891198;29;20470;-67
2021/05/24 09:10:47;;;;;;;1.77;1.40;;;18.60;98.70;;;;;;4891887;29;20478;-66
2021/05/24 09:13:18;;;;;;;1.80;1.70;;;18.90;98.50;;;;;;4882075;29;20903;-67
2021/05/24 09:15:46;;;;;;;1.43;1.33;;;19.30;97.80;;;;;;4891662;29;20453;-66
2021/05/24 09:18:13;;;;;;;1.50;1.37;;;19.10;97.00;;;;;;4891912;29;20467;-67
2021/05/24 09:20:45;;;;;;;1.30;1.20;;;19.30;96.90;;;;;;4891934;29;20817;-67
2021/05/24 09:23:13;;;;;;;2.00;1.10;;;19.70;95.00;;;;;;4891869;29;20535;-67
2021/05/24 09:26:03;;;;;;;1.77;1.43;;;20.00;94.50;;;;;;4891908;29;20454;-67
2021/05/24 09:28:41;;;;;;;1.70;1.60;;;20.30;93.50;;;;;;4882399;29;20463;-67
2021/05/24 09:31:22;;;;;;;3.73;1.70;;;20.40;93.50;;;;;;4894580;29;20526;-67
2021/05/24 09:34:00;;;;;;;2.00;1.57;;;20.50;94.50;;;;;;4893875;29;20506;-67
2021/05/24 09:36:29;;;;;;;2.83;1.80;;;20.60;94.00;;;;;;4880014;29;20438;-67
2021/05/24 09:39:08;;;;;;;3.53;1.30;;;20.60;93.80;;;;;;4894387;29;20850;-67
2021/05/24 09:41:45;;;;;;;1.90;1.70;;;20.70;93.40;;;;;;4885835;29;20458;-67
2021/05/24 09:44:26;;;;;;;2.70;1.60;;;20.80;93.10;;;;;;4898468;29;20427;-67
2021/05/24 09:46:52;;;;;;;1.33;1.23;;;20.50;93.20;;;;;;4897377;29;20474;-67
2021/05/24 09:49:23;;;;;;;3.20;1.87;;;20.50;93.20;;;;;;4898459;29;20501;-67
2021/05/24 09:51:48;;;;;;;2.00;1.90;;;20.30;93.30;;;;;;4898469;29;20809;-67
2021/05/24 09:54:14;;;;;;;0.83;0.83;;;20.40;90.60;;;;;;4898444;29;20441;-67
2021/05/24 09:56:46;;;;;;;4.13;2.37;;;20.40;87.50;;;;;;4898403;29;20650;-66
2021/05/24 09:59:14;;;;;;;2.13;1.50;;;20.60;92.00;;;;;;4897828;29;20209;-67
2021/05/24 10:01:44;;;;;;;1.80;0.87;;;20.40;90.10;;;;;;4898357;29;20439;-67
2021/05/24 10:04:15;;;;;;;1.87;1.30;;;20.10;87.90;;;;;;4898411;29;21016;-67
2021/05/24 10:06:43;;;;;;;4.00;3.60;;;20.20;89.30;;;;;;4898337;29;20538;-66
2021/05/24 10:09:10;;;;;;;4.93;4.47;;;20.10;86.50;;;;;;4897953;29;20466;-66
2021/05/24 10:11:38;;;;;;;2.17;1.97;;;20.10;85.70;;;;;;4898027;29;20502;-66
2021/05/24 10:14:04;;;;;;;3.50;2.10;;;20.00;86.60;;;;;;4897731;29;20510;-66
2021/05/24 10:16:33;;;;;;;3.13;1.53;;;19.80;91.50;;;;;;4897875;29;20432;-66
2021/05/24 10:18:59;;;;;;;1.70;1.60;;;20.00;88.80;;;;;;4896859;29;20482;-66
2021/05/24 10:21:25;;;;;;;3.03;1.47;;;20.30;88.70;;;;;;4895995;29;20870;-66
2021/05/24 10:23:51;;;;;;;1.33;1.20;;;20.60;89.60;;;;;;4897396;29;20527;-66
2021/05/24 10:26:18;;;;;;;1.40;1.30;;;20.60;89.70;;;;;;4896480;29;20431;-66
2021/05/24 10:28:47;;;;;;;1.13;1.10;;;20.90;89.10;;;;;;4896797;29;20515;-66
2021/05/24 10:31:28;;;;;;;2.07;1.83;;;20.30;85.70;;;;;;4880228;29;20470;-69
2021/05/24 10:33:53;;;;;;;1.63;1.43;;;19.90;85.00;;;;;;4889472;29;20438;-66
2021/05/24 10:36:25;;;;;;;1.73;0.83;;;19.70;82.20;;;;;;4897210;29;20435;-65
2021/05/24 10:39:09;;;;;;;1.23;1.00;;;19.70;83.50;;;;;;4891256;29;20470;-66
2021/05/24 10:41:43;;;;;;;1.97;1.10;;;19.50;81.00;;;;;;4890375;29;20435;-66
2021/05/24 10:44:14;;;;;;;1.20;1.10;;;19.40;81.20;;;;;;4889273;29;20427;-66
2021/05/24 10:46:40;;;;;;;1.60;1.30;;;19.40;81.90;;;;;;4896114;29;20442;-66
2021/05/24 10:49:51;;;;;;;1.60;1.50;;;19.50;83.50;;;;;;4894168;29;20464;-66
2021/05/24 10:52:17;;;;;;;2.07;1.00;;;19.60;81.40;;;;;;4879319;29;20444;-66
2021/05/24 10:54:42;;;;;;;2.60;1.47;;;19.80;81.00;;;;;;4893528;29;20478;-66
2021/05/24 10:57:12;;;;;;;1.90;1.23;;;19.70;81.70;;;;;;4893242;29;20673;-67
2021/05/24 10:59:41;;;;;;;1.87;1.00;;;19.60;79.70;;;;;;4896936;29;20282;-66
2021/05/24 11:02:07;;;;;;;1.00;1.00;;;19.50;78.20;;;;;;4896673;29;20439;-66
2021/05/24 11:05:16;;;;;;;1.87;1.27;;;19.40;77.50;;;;;;4896959;29;20849;-65
2021/05/24 11:07:46;;;;;;;1.20;1.13;;;19.20;78.70;;;;;;4889575;29;20442;-66
2021/05/24 11:10:18;;;;;;;1.83;1.37;;;19.50;78.10;;;;;;4896547;29;20996;-66
2021/05/24 11:13:09;;;;;;;3.13;1.93;;;19.80;78.60;;;;;;4895303;29;20470;-66
2021/05/24 11:15:37;;;;;;;1.13;1.10;;;19.90;76.00;;;;;;4884710;29;20494;-66
2021/05/24 11:18:05;;;;;;;1.30;1.20;;;19.90;72.40;;;;;;4896813;29;20465;-66
2021/05/24 11:20:34;;;;;;;1.37;1.27;;;20.00;71.40;;;;;;4896571;29;20463;-66
2021/05/24 11:28:16;;;;;;;2.77;1.50;;;21.60;60.80;;;;;;4896755;29;20502;-66
2021/05/24 11:30:42;;;;;;;1.50;1.40;;;21.90;60.60;;;;;;4896347;29;20985;-66
2021/05/24 11:33:42;;;;;;;1.53;1.43;;;22.40;61.30;;;;;;4896446;29;20623;-66
2021/05/24 11:36:09;;;;;;;3.13;2.30;;;22.20;58.70;;;;;;4896465;29;21009;-66
2021/05/24 11:38:35;;;;;;;2.03;1.80;;;22.00;59.70;;;;;;4896335;29;20469;-66
2021/05/24 11:41:16;;;;;;;1.83;1.40;;;22.50;58.50;;;;;;4896284;29;20918;-66
2021/05/24 11:43:43;;;;;;;2.37;1.20;;;23.70;56.00;;;;;;4896891;29;20193;-66
2021/05/24 11:46:12;;;;;;;1.10;1.10;;;25.10;52.90;;;;;;4896147;29;20522;-66
2021/05/24 11:48:43;;;;;;;1.40;1.30;;;25.30;50.00;;;;;;4896171;29;20454;-66
2021/05/24 11:51:11;;;;;;;1.50;1.40;;;25.90;51.20;;;;;;4895125;29;20541;-66
2021/05/24 11:53:37;;;;;;;2.50;1.13;;;26.40;47.80;;;;;;4895989;29;20439;-66
2021/05/24 11:56:12;;;;;;;1.83;1.00;;;26.30;46.50;;;;;;4889444;29;20481;-66
2021/05/24 11:58:57;;;;;;;3.87;3.53;;;26.50;45.90;;;;;;4892445;29;20497;-66
2021/05/24 12:01:22;;;;;;;1.60;1.50;;;26.10;45.90;;;;;;4892789;29;20427;-66
2021/05/24 12:03:48;;;;;;;1.67;1.57;;;26.30;45.90;;;;;;4892341;29;20497;-66
2021/05/24 12:06:14;;;;;;;0.90;0.73;;;26.80;44.70;;;;;;4892231;29;20182;-66
2021/05/24 12:08:45;;;;;;;1.73;1.40;;;25.20;46.40;;;;;;4892283;29;20267;-66
2021/05/24 12:11:13;;;;;;;2.50;2.30;;;24.90;48.30;;;;;;4890535;29;20192;-66
2021/05/24 12:14:05;;;;;;;0.93;0.83;;;24.60;49.30;;;;;;4892748;29;20438;-66
2021/05/24 12:16:32;;;;;;;1.40;1.30;;;24.20;48.00;;;;;;4891778;29;20422;-66
2021/05/24 12:19:00;;;;;;;1.50;1.00;;;23.10;49.90;;;;;;4890961;29;20447;-66
2021/05/24 12:21:31;;;;;;;1.10;1.00;;;22.80;51.00;;;;;;4891694;29;20441;-66
2021/05/24 12:24:01;;;;;;;1.80;1.20;;;22.50;52.50;;;;;;4891823;29;20454;-66
2021/05/24 12:26:27;;;;;;;1.77;1.20;;;22.30;53.20;;;;;;4892121;29;20506;-66
2021/05/24 12:28:53;;;;;;;1.50;1.40;;;21.50;54.60;;;;;;4891111;29;21007;-66
2021/05/24 12:31:20;;;;;;;4.60;2.00;;;21.10;55.80;;;;;;4890499;29;20784;-66
2021/05/24 12:33:46;;;;;;;1.63;1.37;;;20.90;57.10;;;;;;4888232;29;20526;-66
2021/05/24 12:36:17;;;;;;;1.77;1.67;;;21.00;56.70;;;;;;4890146;29;20444;-66
2021/05/24 12:39:05;;;;;;;1.80;1.50;;;20.90;57.60;;;;;;4885132;29;20558;-66
2021/05/24 12:41:32;;;;;;;1.30;1.20;;;20.90;57.70;;;;;;4889850;29;20977;-66
2021/05/24 12:44:02;;;;;;;1.60;1.50;;;20.80;57.80;;;;;;4891366;29;20949;-67
2021/05/24 12:46:29;;;;;;;1.80;1.63;;;20.80;58.70;;;;;;4892567;29;20431;-66
2021/05/24 12:48:55;;;;;;;1.00;1.00;;;20.90;58.40;;;;;;4891919;29;20517;-66
2021/05/24 12:51:24;;;;;;;1.40;1.30;;;21.00;58.20;;;;;;4892589;29;20921;-66
2021/05/24 12:53:59;;;;;;;2.43;1.67;;;20.90;58.20;;;;;;4892487;29;20531;-65
2021/05/24 12:56:37;;;;;;;1.93;1.33;;;20.60;59.80;;;;;;4892364;29;20873;-65
2021/05/24 12:59:16;;;;;;;1.27;1.17;;;20.40;60.40;;;;;;4891786;29;20982;-65